Flugplatz Wunstorf Airport

Bericht für ETNW

vom 21.09. um 20:20 UTC

Wind 5 kt aus 110°

Sichtweite 10 km oder mehr

Temperatur 16.0°C

Taupunkt 7.0°C

Luftfeuchtigkeit 55%

Luftdruck 1017 hPa

ETNW 212020Z AUTO 11005KT 9999 // ////// 16/07 Q1017 ///

Prognose für ETNW

vom 21.09. um 00:00 UTC

Zwischen 00:00 UTC und 00:00 UTC

Wind 5 kt aus 100°

Sichtweite 10 km oder mehr

keine signifikanten Wettererscheinungen

gering bewölkt in 35000 ft

TAF ETNW 211615Z 2117/2217 10005KT 9999 NSW FEW350 CANCEL BY ETGL
Impressum